Time;durP1;ratioP1;P1;durP2;ratioP2;P2;SDS_P1;SDS_P2;PMS_P1;PMS_P2;Temp;Humidity;BMP_temperature;BMP_pressure;BME280_temperature;BME280_humidity;BME280_pressure;Samples;Min_cycle;Max_cycle;Signal;HPM_P1;HPM_P2
2023/10/17 00:00:39;;;;;;;4.55;1.00;;;;;;;13.18;82.89;101348.53;7356070;19;20078;-66
2023/10/17 00:03:06;;;;;;;2.63;0.88;;;;;;;13.20;82.03;101348.41;7356650;19;20018;-65
2023/10/17 00:05:33;;;;;;;2.85;0.70;;;;;;;13.22;81.63;101349.88;7360814;19;20042;-65
2023/10/17 00:08:03;;;;;;;7.95;0.73;;;;;;;13.27;80.52;101338.84;7357254;19;20006;-65
2023/10/17 00:10:35;;;;;;;3.53;0.50;;;;;;;13.28;80.21;101329.94;7357804;19;20110;-66
2023/10/17 00:15:39;;;;;;;3.20;0.65;;;;;;;13.33;80.14;101316.22;7355098;19;20398;-65
2023/10/17 00:20:44;;;;;;;2.53;0.43;;;;;;;13.36;77.66;101310.66;7357333;19;20765;-66
2023/10/17 00:23:14;;;;;;;2.47;0.50;;;;;;;13.38;76.94;101314.78;7357421;19;20023;-66
2023/10/17 00:25:42;;;;;;;3.70;0.32;;;;;;;13.37;76.42;101307.81;7356917;19;20050;-65
2023/10/17 00:28:10;;;;;;;3.70;0.35;;;;;;;13.36;76.30;101306.16;7352167;19;20022;-66
2023/10/17 00:30:38;;;;;;;2.60;0.40;;;;;;;13.37;76.43;101307.81;7354028;19;20018;-65
2023/10/17 00:33:05;;;;;;;4.03;0.30;;;;;;;13.35;76.10;101301.88;7356383;19;20006;-65
2023/10/17 00:35:38;;;;;;;2.83;0.40;;;;;;;13.35;75.74;101298.41;7352919;19;20050;-65
2023/10/17 00:38:07;;;;;;;1.30;0.30;;;;;;;13.36;76.09;101292.16;7362201;19;20463;-65
2023/10/17 00:43:13;;;;;;;1.98;0.20;;;;;;;13.39;75.95;101289.16;7358650;19;20134;-65
2023/10/17 00:45:41;;;;;;;3.60;0.30;;;;;;;13.40;76.42;101281.09;7354995;19;20013;-65
2023/10/17 00:50:52;;;;;;;3.50;0.40;;;;;;;13.42;76.28;101270.34;7355275;19;20018;-64
2023/10/17 00:53:20;;;;;;;2.13;0.40;;;;;;;13.44;76.66;101277.13;7354983;19;20015;-64
2023/10/17 00:55:51;;;;;;;2.05;0.40;;;;;;;13.41;76.08;101284.56;7356432;19;20026;-65
2023/10/17 00:58:19;;;;;;;4.28;0.40;;;;;;;13.42;75.29;101281.75;7354931;19;20010;-65
2023/10/17 01:00:53;;;;;;;3.33;0.77;;;;;;;13.43;75.24;101293.16;7354287;19;20528;-66
2023/10/17 01:03:21;;;;;;;2.88;0.30;;;;;;;13.39;75.10;101282.06;7353354;19;20010;-65
2023/10/17 01:05:57;;;;;;;1.83;0.40;;;;;;;13.41;75.07;101276.63;7356709;19;20015;-65
2023/10/17 01:08:37;;;;;;;2.13;0.30;;;;;;;13.41;75.42;101274.78;7354474;19;20010;-66
2023/10/17 01:11:09;;;;;;;2.55;0.60;;;;;;;13.40;75.61;101270.50;7355812;19;20034;-65
2023/10/17 01:13:38;;;;;;;2.63;0.50;;;;;;;13.43;75.56;101264.06;7355201;19;20018;-65
2023/10/17 01:16:12;;;;;;;3.90;0.50;;;;;;;13.42;74.79;101265.88;7356286;19;20025;-66
2023/10/17 01:18:39;;;;;;;5.03;0.85;;;;;;;13.44;75.80;101265.72;7353906;19;20007;-65
2023/10/17 01:21:08;;;;;;;2.85;0.50;;;;;;;13.43;74.67;101269.34;7352275;19;20302;-65
2023/10/17 01:23:39;;;;;;;6.32;0.68;;;;;;;13.44;75.44;101253.34;7354384;19;20022;-65
2023/10/17 01:26:09;;;;;;;2.70;0.55;;;;;;;13.43;75.11;101264.91;7354332;19;20447;-65
2023/10/17 01:28:36;;;;;;;6.20;0.63;;;;;;;13.44;75.20;101263.91;7355038;19;20031;-65
2023/10/17 01:31:03;;;;;;;4.18;0.50;;;;;;;13.44;74.55;101256.00;7353184;19;20041;-65
2023/10/17 01:33:31;;;;;;;1.73;0.40;;;;;;;13.44;75.70;101253.34;7351061;19;20019;-65
2023/10/17 01:36:01;;;;;;;4.68;0.82;;;;;;;13.45;75.08;101247.06;7350975;19;20086;-65
2023/10/17 01:38:28;;;;;;;3.35;0.40;;;;;;;13.49;75.08;101251.03;7354302;19;20062;-65
2023/10/17 01:41:00;;;;;;;5.18;0.60;;;;;;;13.51;73.34;101249.03;7352894;19;20063;-66
2023/10/17 01:43:35;;;;;;;3.75;0.45;;;;;;;13.49;73.89;101243.13;7352124;19;20656;-66
2023/10/17 01:46:05;;;;;;;3.05;0.60;;;;;;;13.52;73.63;101234.00;7353981;19;20027;-66
2023/10/17 01:48:32;;;;;;;6.68;0.82;;;;;;;13.50;73.62;101238.66;7352875;19;20379;-66
2023/10/17 01:51:06;;;;;;;3.30;0.50;;;;;;;13.49;74.38;101244.94;7356266;19;20026;-66
2023/10/17 01:53:34;;;;;;;4.63;0.40;;;;;;;13.50;73.27;101243.94;7349121;19;20573;-65
2023/10/17 01:56:06;;;;;;;3.85;0.65;;;;;;;13.49;73.19;101244.94;7354268;19;20011;-66
2023/10/17 01:58:37;;;;;;;4.45;0.68;;;;;;;13.50;73.43;101252.72;7353512;19;20038;-66
2023/10/17 02:01:12;;;;;;;2.40;0.52;;;;;;;13.55;72.93;101254.88;7351892;19;20011;-66
2023/10/17 02:03:40;;;;;;;1.58;0.40;;;;;;;13.52;73.21;101240.13;7354438;19;20018;-65
2023/10/17 02:08:46;;;;;;;4.70;0.60;;;;;;;13.49;72.38;101234.34;7353503;19;20018;-65
2023/10/17 02:11:23;;;;;;;4.28;0.60;;;;;;;13.47;72.09;101238.97;7353269;19;20033;-65
2023/10/17 02:13:56;;;;;;;4.18;0.57;;;;;;;13.46;72.15;101232.84;7352702;19;20045;-66
2023/10/17 02:16:24;;;;;;;4.55;0.45;;;;;;;13.47;72.40;101231.03;7354217;19;20363;-65
2023/10/17 02:18:52;;;;;;;6.68;0.80;;;;;;;13.49;72.21;101232.53;7355756;19;20078;-65
2023/10/17 02:21:21;;;;;;;4.63;0.70;;;;;;;13.49;72.27;101227.25;7356527;19;20448;-64
2023/10/17 02:23:49;;;;;;;4.10;1.35;;;;;;;13.50;72.07;101225.44;7354169;19;20651;-66
2023/10/17 02:26:21;;;;;;;4.95;0.50;;;;;;;13.48;71.39;101228.22;7354877;19;20134;-67
2023/10/17 02:28:49;;;;;;;7.07;0.80;;;;;;;13.49;72.13;101223.78;7353948;19;21391;-65
2023/10/17 02:31:27;;;;;;;7.45;0.95;;;;;;;13.49;71.65;101227.25;7354323;19;20025;-65
2023/10/17 02:33:56;;;;;;;5.78;0.40;;;;;;;13.46;71.21;101224.91;7359700;19;20022;-65
2023/10/17 02:36:23;;;;;;;3.53;0.40;;;;;;;13.46;71.48;101224.91;7355490;19;20131;-66
2023/10/17 02:38:51;;;;;;;7.30;1.20;;;;;;;13.47;71.68;101221.28;7356801;19;20046;-64
2023/10/17 02:41:18;;;;;;;3.00;0.50;;;;;;;13.46;71.66;101221.47;7355474;19;20050;-65
2023/10/17 02:46:27;;;;;;;4.72;0.47;;;;;;;13.56;71.40;101227.44;7358416;19;20014;-66
2023/10/17 02:48:55;;;;;;;3.67;0.45;;;;;;;13.56;71.11;101224.78;7358479;19;20038;-65
2023/10/17 02:53:53;;;;;;;2.92;0.65;;;;;;;13.56;71.98;101215.03;7361512;19;20090;-65
2023/10/17 02:56:21;;;;;;;2.30;0.40;;;;;;;13.53;71.65;101207.41;7361936;19;20011;-66
2023/10/17 02:58:50;;;;;;;4.40;0.60;;;;;;;13.50;71.12;101199.00;7356814;19;20018;-66
2023/10/17 03:01:22;;;;;;;3.72;0.65;;;;;;;13.51;71.14;101204.09;7358584;19;20038;-66
2023/10/17 03:03:50;;;;;;;4.40;0.45;;;;;;;13.50;71.09;101199.00;7357723;19;20011;-65
2023/10/17 03:06:18;;;;;;;3.83;0.55;;;;;;;13.51;71.45;101198.81;7359791;19;20025;-65
2023/10/17 03:09:00;;;;;;;1.27;0.50;;;;;;;13.52;71.67;101194.34;7358269;19;20055;-67
2023/10/17 03:16:43;;;;;;;2.45;0.50;;;;;;;13.48;70.75;101185.09;7358072;19;20022;-65
2023/10/17 03:19:12;;;;;;;4.30;0.50;;;;;;;13.46;70.56;101179.16;7364701;19;20470;-66
2023/10/17 03:21:43;;;;;;;5.28;0.50;;;;;;;13.47;70.88;101172.88;7356393;19;20360;-65
2023/10/17 03:24:13;;;;;;;4.65;0.40;;;;;;;13.48;70.24;101169.25;7358676;19;20010;-66
2023/10/17 03:26:40;;;;;;;4.25;0.40;;;;;;;13.45;69.84;101164.28;7359233;19;20048;-66
2023/10/17 03:31:52;;;;;;;6.18;0.43;;;;;;;13.46;70.20;101168.59;7357817;19;20010;-65
2023/10/17 03:34:33;;;;;;;1.63;0.40;;;;;;;13.44;69.25;101155.53;7356733;19;20010;-65
2023/10/17 03:37:26;;;;;;;4.63;0.50;;;;;;;13.48;69.71;101154.22;7360029;19;20018;-66
2023/10/17 03:39:52;;;;;;;2.05;0.30;;;;;;;13.50;70.19;101159.34;7353715;19;20731;-65
2023/10/17 03:45:02;;;;;;;3.13;0.40;;;;;;;13.49;69.82;101158.50;7358147;19;20014;-67
2023/10/17 03:47:31;;;;;;;4.05;0.40;;;;;;;13.50;69.79;101165.47;7362900;19;20059;-65
2023/10/17 03:49:58;;;;;;;3.22;0.40;;;;;;;13.50;69.31;101156.69;7358337;19;20475;-65
2023/10/17 03:52:28;;;;;;;2.78;0.40;;;;;;;13.48;69.71;101156.84;7359802;19;20014;-66
2023/10/17 03:54:56;;;;;;;2.90;0.30;;;;;;;13.48;69.50;101158.66;7359162;19;20720;-66
2023/10/17 03:57:25;;;;;;;2.17;0.30;;;;;;;13.47;69.02;101152.56;7356963;19;20025;-66
2023/10/17 03:59:56;;;;;;;3.42;0.40;;;;;;;13.48;69.92;101154.22;7355058;19;20379;-65
2023/10/17 04:02:24;;;;;;;2.08;0.30;;;;;;;13.47;68.90;101152.56;7358781;19;20030;-66
2023/10/17 04:04:53;;;;;;;2.40;0.40;;;;;;;13.49;69.01;101157.69;7358512;19;20014;-69
2023/10/17 04:07:23;;;;;;;5.13;0.32;;;;;;;13.52;68.99;101158.19;7358465;19;20018;-67
2023/10/17 04:15:09;;;;;;;3.65;0.30;;;;;;;13.43;68.51;101129.25;7355110;19;20493;-66
2023/10/17 04:17:37;;;;;;;3.05;0.30;;;;;;;13.46;69.64;101136.88;7356775;19;20011;-65
2023/10/17 04:22:44;;;;;;;4.93;0.40;;;;;;;13.44;68.26;101138.84;7359785;19;20014;-67
2023/10/17 04:30:35;;;;;;;1.45;0.30;;;;;;;13.48;69.15;101130.41;7356524;19;20018;-65
2023/10/17 04:33:08;;;;;;;4.22;0.35;;;;;;;13.49;69.87;101131.25;7358408;19;20037;-65
2023/10/17 04:35:40;;;;;;;4.53;0.45;;;;;;;13.52;69.86;101136.19;7356566;19;20040;-65
2023/10/17 04:38:16;;;;;;;2.97;0.55;;;;;;;13.51;70.33;101137.22;7352723;19;20487;-65
2023/10/17 04:40:50;;;;;;;4.25;0.40;;;;;;;13.48;69.97;101134.88;7354611;19;20906;-65
2023/10/17 04:45:47;;;;;;;5.93;0.40;;;;;;;13.51;69.72;101143.28;7356059;19;20022;-67
2023/10/17 04:48:17;;;;;;;5.32;0.52;;;;;;;13.54;70.08;101140.34;7354809;19;20042;-65
2023/10/17 04:50:45;;;;;;;3.20;0.40;;;;;;;13.52;69.92;101136.19;7354921;19;20015;-66
2023/10/17 04:53:19;;;;;;;3.63;0.50;;;;;;;13.53;70.37;101133.41;7353330;19;20014;-65
2023/10/17 04:58:39;;;;;;;4.38;0.50;;;;;;;13.55;71.30;101130.59;7357165;19;20011;-66
2023/10/17 05:03:46;;;;;;;4.40;0.50;;;;;;;13.59;71.33;101124.81;7357955;19;20106;-65
2023/10/17 06:17:23;;;;;;;9.00;1.73;;;;;;;13.55;73.77;101135.88;7361578;19;20015;-66
2023/10/17 06:19:51;;;;;;;7.47;1.88;;;;;;;13.57;74.10;101137.34;7359489;19;20035;-66
2023/10/17 06:24:56;;;;;;;7.78;1.48;;;;;;;13.55;73.38;101136.72;7358128;19;20022;-65
2023/10/17 06:37:44;;;;;;;8.65;1.80;;;;;;;13.63;74.79;101131.41;7358579;19;20018;-68
2023/10/17 06:40:15;;;;;;;6.63;1.50;;;;;;;13.62;74.01;101121.81;7355682;19;20048;-67
2023/10/17 06:42:58;;;;;;;3.92;1.40;;;;;;;13.66;74.36;101127.63;7355682;19;20019;-67
2023/10/17 06:45:27;;;;;;;9.13;1.42;;;;;;;13.67;74.45;101139.84;7354737;19;20642;-67
2023/10/17 06:47:58;;;;;;;8.60;1.20;;;;;;;13.67;74.22;101137.19;7359047;19;20374;-67
2023/10/17 06:53:03;;;;;;;8.30;1.50;;;;;;;13.69;74.45;101141.34;7360197;19;20018;-67
2023/10/17 06:58:09;;;;;;;7.13;1.13;;;;;;;13.70;74.11;101131.59;7355562;19;20019;-67
2023/10/17 07:03:24;;;;;;;6.47;1.15;;;;;;;13.73;73.96;101141.81;7356835;19;20014;-67
2023/10/17 07:06:11;;;;;;;8.40;1.40;;;;;;;13.77;74.20;101140.50;7357191;19;20025;-66
2023/10/17 07:08:41;;;;;;;6.32;1.20;;;;;;;13.78;74.01;101133.41;7357903;19;20019;-67
2023/10/17 07:11:09;;;;;;;6.03;1.50;;;;;;;13.77;73.75;101140.50;7357201;19;20130;-66
2023/10/17 07:13:49;;;;;;;7.60;1.55;;;;;;;13.84;73.50;101151.25;7354004;19;20333;-67
2023/10/17 07:24:35;;;;;;;5.35;1.00;;;;;;;13.84;73.73;101165.31;7358015;19;20371;-66
2023/10/17 07:27:11;;;;;;;12.80;1.58;;;;;;;13.85;72.15;101155.56;7355297;19;19999;-67
2023/10/17 07:29:58;;;;;;;5.72;0.98;;;;;;;13.83;72.56;101155.72;7351927;19;20018;-66
2023/10/17 07:35:30;;;;;;;7.32;1.20;;;;;;;13.88;72.90;101155.22;7350331;19;20010;-66
2023/10/17 07:37:57;;;;;;;12.82;1.30;;;;;;;13.89;72.58;101155.06;7356606;19;20014;-66
2023/10/17 07:43:05;;;;;;;6.43;1.27;;;;;;;13.94;73.44;101143.97;7352883;19;20293;-67
2023/10/17 07:45:39;;;;;;;6.13;0.90;;;;;;;13.94;72.09;101150.09;7355925;19;20011;-68
2023/10/17 07:50:49;;;;;;;6.72;1.02;;;;;;;13.98;72.02;101151.41;7353085;19;20022;-67
2023/10/17 07:53:19;;;;;;;3.83;0.90;;;;;;;14.01;71.17;101148.44;7358825;19;20019;-67
2023/10/17 07:55:49;;;;;;;5.97;0.80;;;;;;;14.08;70.37;101159.16;7357469;19;20130;-66
2023/10/17 07:58:17;;;;;;;9.57;1.00;;;;;;;14.08;70.74;101159.16;7358948;19;20672;-66
2023/10/17 08:00:48;;;;;;;6.93;0.93;;;;;;;14.11;71.06;101172.91;7357492;19;20049;-68
2023/10/17 08:03:18;;;;;;;4.90;0.70;;;;;;;14.12;70.92;101169.25;7356259;19;20010;-66
2023/10/17 08:08:30;;;;;;;7.68;0.68;;;;;;;14.19;70.57;101168.56;7356092;19;20010;-67
2023/10/17 08:10:58;;;;;;;6.60;1.38;;;;;;;14.18;70.12;101162.47;7357080;19;20023;-67
2023/10/17 08:13:26;;;;;;;4.32;0.93;;;;;;;14.22;70.26;101157.69;7354282;19;20014;-66
2023/10/17 08:16:05;;;;;;;6.70;0.70;;;;;;;14.25;70.16;101166.09;7353156;19;20014;-66
2023/10/17 08:18:39;;;;;;;8.13;0.70;;;;;;;14.25;68.68;101168.75;7355686;19;20044;-67
2023/10/17 08:23:46;;;;;;;4.32;0.63;;;;;;;14.27;69.29;101160.63;7358738;19;20015;-66
2023/10/17 08:26:17;;;;;;;8.57;0.63;;;;;;;14.31;68.77;101167.25;7357765;19;20083;-66
2023/10/17 08:41:50;;;;;;;8.43;0.98;;;;;;;14.45;69.74;101140.09;7346836;19;20014;-66
2023/10/17 08:44:19;;;;;;;9.07;0.90;;;;;;;14.49;69.00;101138.75;7352492;19;20014;-66
2023/10/17 08:46:46;;;;;;;7.88;0.80;;;;;;;14.52;69.24;101141.09;7351829;19;20078;-67
2023/10/17 08:49:13;;;;;;;6.75;0.70;;;;;;;14.53;69.62;101140.88;7353066;19;20019;-66
2023/10/17 08:51:41;;;;;;;8.65;0.60;;;;;;;14.50;68.36;101133.31;7351229;19;20026;-66
2023/10/17 08:54:08;;;;;;;6.05;0.40;;;;;;;14.53;68.86;101132.13;7352961;19;20015;-66
2023/10/17 08:57:02;;;;;;;10.55;1.10;;;;;;;14.56;68.38;101123.84;7328922;19;20777;-66
2023/10/17 09:15:48;;;;;;;9.50;0.80;;;;;;;14.69;68.41;101120.63;7347697;19;20129;-67
2023/10/17 09:18:39;;;;;;;6.53;0.73;;;;;;;14.69;68.28;101118.00;7350500;19;20010;-66
2023/10/17 09:21:08;;;;;;;7.47;0.70;;;;;;;14.74;68.38;101118.28;7348654;19;20409;-67
2023/10/17 09:23:41;;;;;;;6.22;0.80;;;;;;;14.73;68.30;101117.47;7351132;19;20125;-65
2023/10/17 09:26:12;;;;;;;;;;;;;;;14.78;67.24;101119.63;7353717;19;20018;-66
2023/10/17 09:28:39;;;;;;;6.30;0.73;;;;;;;14.80;67.44;101123.75;7357945;19;19919;-65
2023/10/17 09:31:08;;;;;;;8.75;1.77;;;;;;;14.80;67.00;101107.84;7354769;19;20018;-67
2023/10/17 09:33:43;;;;;;;8.85;0.80;;;;;;;14.74;66.50;101100.59;7339876;19;20404;-65
2023/10/17 09:36:12;;;;;;;5.00;0.50;;;;;;;14.73;66.04;101100.78;7348573;19;20018;-66
2023/10/17 09:38:46;;;;;;;7.43;0.50;;;;;;;14.75;65.66;101104.06;7353307;19;20018;-63
2023/10/17 09:41:29;;;;;;;4.45;0.60;;;;;;;14.74;65.35;101111.19;7353035;19;20018;-67
2023/10/17 09:43:59;;;;;;;6.18;1.00;;;;;;;14.75;64.73;101093.47;7348726;19;20127;-67
2023/10/17 09:46:35;;;;;;;7.10;1.13;;;;;;;14.78;64.78;101114.31;7350577;19;20068;-67
2023/10/17 09:49:11;;;;;;;18.90;2.60;;;;;;;14.79;65.12;101095.59;7350740;19;20098;-67
2023/10/17 09:51:41;;;;;;;5.00;0.60;;;;;;;14.81;65.38;101096.25;7352468;19;20021;-67
2023/10/17 09:54:12;;;;;;;5.50;0.50;;;;;;;14.86;65.57;101099.22;7348810;19;20018;-67
2023/10/17 09:56:45;;;;;;;3.55;0.50;;;;;;;14.87;65.02;101098.22;7353769;19;20703;-66
2023/10/17 09:59:18;;;;;;;10.20;1.30;;;;;;;14.84;64.77;101103.84;7352041;19;20026;-66
2023/10/17 10:01:49;;;;;;;9.38;0.80;;;;;;;14.84;65.21;101098.53;7351845;19;20048;-66
2023/10/17 10:04:18;;;;;;;4.25;0.40;;;;;;;14.89;64.97;101087.41;7336749;19;21083;-67
2023/10/17 10:06:47;;;;;;;10.32;0.90;;;;;;;14.89;64.90;101100.66;7351752;19;20018;-66
2023/10/17 10:09:15;;;;;;;8.15;0.43;;;;;;;14.86;64.58;101098.38;7351074;19;20018;-65
2023/10/17 10:11:58;;;;;;;10.65;0.75;;;;;;;14.88;65.10;101104.34;7349368;19;20023;-66
2023/10/17 10:14:33;;;;;;;11.40;0.80;;;;;;;14.89;65.45;101088.25;7349192;19;20019;-67
2023/10/17 10:17:03;;;;;;;6.95;0.45;;;;;;;14.92;64.16;101100.34;7354765;19;20086;-66
2023/10/17 10:19:46;;;;;;;5.00;0.50;;;;;;;14.91;63.63;101110.09;7354670;19;20018;-67
2023/10/17 10:22:15;;;;;;;12.52;0.60;;;;;;;14.89;63.64;101096.19;7353017;19;20046;-67
2023/10/17 10:24:45;;;;;;;8.20;0.40;;;;;;;14.87;61.50;101089.44;7351662;19;20007;-67
2023/10/17 10:27:24;;;;;;;5.22;0.60;;;;;;;14.90;61.55;101087.25;7353832;19;20056;-66
2023/10/17 10:29:56;;;;;;;7.55;0.50;;;;;;;14.89;61.59;101092.72;7350036;19;20015;-67
2023/10/17 10:32:43;;;;;;;12.05;0.80;;;;;;;14.94;62.02;101090.38;7354153;19;20320;-66
2023/10/17 10:35:18;;;;;;;5.85;0.60;;;;;;;14.94;61.81;101095.66;7353149;19;20090;-66
2023/10/17 10:37:52;;;;;;;16.05;2.40;;;;;;;15.01;61.48;101090.50;7354035;19;20387;-66
2023/10/17 10:40:24;;;;;;;7.72;0.80;;;;;;;15.01;61.07;101091.34;7353500;19;20022;-66
2023/10/17 10:43:11;;;;;;;8.02;0.55;;;;;;;14.99;61.56;101096.81;7349159;19;20106;-66
2023/10/17 10:45:42;;;;;;;2.28;0.30;;;;;;;15.04;61.04;101093.63;7347714;19;20412;-65
2023/10/17 10:48:13;;;;;;;7.22;0.80;;;;;;;15.03;60.94;101101.78;7352716;19;20018;-66
2023/10/17 10:50:48;;;;;;;7.03;1.08;;;;;;;14.97;61.09;101085.56;7351909;19;20443;-65
2023/10/17 10:53:28;;;;;;;6.82;0.70;;;;;;;15.01;60.54;101074.59;7351718;19;20101;-66
2023/10/17 10:55:57;;;;;;;5.78;0.55;;;;;;;14.96;60.36;101069.84;7355823;19;20037;-65
2023/10/17 10:58:25;;;;;;;11.48;0.98;;;;;;;14.98;61.27;101079.25;7359722;19;20067;-67
2023/10/17 11:00:58;;;;;;;25.63;1.70;;;;;;;14.99;61.64;101075.59;7354728;19;20014;-67
2023/10/17 11:03:26;;;;;;;9.32;0.63;;;;;;;15.03;61.21;101080.56;7353463;19;20973;-67
2023/10/17 11:05:58;;;;;;;8.27;1.05;;;;;;;15.07;61.89;101077.38;7356297;19;20033;-67
2023/10/17 11:08:35;;;;;;;9.50;0.85;;;;;;;15.12;61.82;101090.09;7359804;19;20021;-67
2023/10/17 11:11:03;;;;;;;6.00;0.50;;;;;;;15.13;60.12;101076.69;7355128;19;20523;-67
2023/10/17 11:13:39;;;;;;;4.05;0.47;;;;;;;15.09;60.08;101069.25;7350775;19;20749;-67
2023/10/17 11:16:07;;;;;;;6.03;0.63;;;;;;;15.11;59.80;101064.59;7356745;19;20018;-67
2023/10/17 11:18:35;;;;;;;5.28;0.50;;;;;;;15.13;59.57;101060.78;7355808;19;20475;-67
2023/10/17 11:21:04;;;;;;;5.57;0.50;;;;;;;15.15;60.12;101069.38;7356974;19;20018;-67
2023/10/17 11:23:34;;;;;;;8.73;0.55;;;;;;;15.13;60.16;101066.09;7357377;19;20447;-67
2023/10/17 11:26:07;;;;;;;5.28;0.52;;;;;;;15.18;59.86;101049.66;7358472;19;20010;-67
2023/10/17 11:28:54;;;;;;;9.18;0.63;;;;;;;15.23;59.81;101055.25;7358684;19;20026;-66
2023/10/17 11:31:31;;;;;;;3.90;0.50;;;;;;;15.21;60.44;101062.53;7355080;19;20014;-66
2023/10/17 11:34:04;;;;;;;3.35;0.40;;;;;;;15.23;60.34;101044.63;7359457;19;20010;-67
2023/10/17 11:36:55;;;;;;;;;;;;;;;15.28;61.32;101044.94;7359324;19;20035;-67
2023/10/17 11:39:26;;;;;;;5.85;0.32;;;;;;;15.30;61.27;101037.59;7356420;19;19938;-67
2023/10/17 11:41:53;;;;;;;5.35;0.55;;;;;;;15.33;61.09;101046.06;7355117;19;20592;-66
2023/10/17 11:44:23;;;;;;;5.72;0.50;;;;;;;15.30;60.63;101032.31;7354328;19;20033;-66
2023/10/17 11:49:47;;;;;;;5.65;0.40;;;;;;;15.35;61.65;101033.41;7351815;19;20397;-67
2023/10/17 11:52:15;;;;;;;8.55;0.65;;;;;;;15.37;62.14;101017.34;7358403;19;20126;-67
2023/10/17 11:55:11;;;;;;;6.70;0.50;;;;;;;15.43;61.95;101021.94;7357386;19;20014;-66
2023/10/17 11:57:40;;;;;;;6.90;0.43;;;;;;;15.51;60.92;101008.63;7357272;19;20042;-67
2023/10/17 12:02:47;;;;;;;5.00;0.60;;;;;;;15.45;61.53;101013.78;7357038;19;20568;-66
2023/10/17 12:05:19;;;;;;;6.53;0.80;;;;;;;15.54;60.82;101012.75;7353183;19;20915;-67
2023/10/17 12:07:57;;;;;;;3.40;0.60;;;;;;;15.53;61.01;101003.13;7357363;19;20777;-66
2023/10/17 12:10:24;;;;;;;10.20;0.65;;;;;;;15.54;60.80;101008.28;7354396;19;20021;-67
2023/10/17 12:12:58;;;;;;;5.60;0.65;;;;;;;15.50;60.20;100998.16;7355381;19;20014;-66
2023/10/17 12:15:26;;;;;;;4.35;0.70;;;;;;;15.55;60.58;100991.34;7348637;19;20595;-66
2023/10/17 12:17:53;;;;;;;1.98;0.40;;;;;;;15.55;60.52;100988.69;7358184;19;20567;-67
2023/10/17 12:20:25;;;;;;;8.30;0.75;;;;;;;15.59;59.64;100986.50;7353304;19;20042;-67
2023/10/17 12:22:57;;;;;;;6.05;0.60;;;;;;;15.64;59.55;100987.63;7355198;19;20011;-67
2023/10/17 12:25:25;;;;;;;10.13;0.90;;;;;;;15.67;59.49;100973.97;7355385;19;20036;-66
2023/10/17 12:27:56;;;;;;;6.30;0.50;;;;;;;15.63;59.84;100993.91;7356453;19;20554;-68
2023/10/17 12:30:27;;;;;;;8.00;0.67;;;;;;;15.62;59.35;100978.19;7356268;19;20019;-67
2023/10/17 12:32:55;;;;;;;6.78;0.63;;;;;;;15.54;58.64;100962.34;7355545;19;20320;-67
2023/10/17 12:35:23;;;;;;;4.28;0.50;;;;;;;15.55;58.68;100966.63;7356770;19;20843;-66
2023/10/17 12:37:51;;;;;;;3.95;0.45;;;;;;;15.61;59.27;100960.59;7359500;19;20014;-66
2023/10/17 12:40:21;;;;;;;4.55;0.40;;;;;;;15.69;59.41;100960.53;7356668;19;20015;-67
2023/10/17 12:42:50;;;;;;;5.10;0.50;;;;;;;15.67;58.88;100952.75;7356760;19;20078;-67
2023/10/17 12:45:18;;;;;;;7.72;0.40;;;;;;;15.69;59.41;100950.75;7357037;19;20357;-67
2023/10/17 12:47:47;;;;;;;7.90;0.50;;;;;;;15.69;59.87;100950.75;7352927;19;20599;-67
2023/10/17 12:50:15;;;;;;;6.85;0.90;;;;;;;15.78;59.41;100954.13;7355120;19;21543;-67
2023/10/17 12:52:42;;;;;;;3.83;0.35;;;;;;;15.75;58.95;100939.38;7354435;19;20018;-66
2023/10/17 12:55:11;;;;;;;2.13;0.30;;;;;;;15.74;59.03;100951.03;7354522;19;20487;-68
2023/10/17 12:57:39;;;;;;;6.07;0.65;;;;;;;15.75;58.58;100935.91;7354519;19;20644;-66
2023/10/17 13:00:11;;;;;;;7.53;0.55;;;;;;;15.79;59.10;100919.47;7353172;19;20905;-66
2023/10/17 13:02:39;;;;;;;8.13;0.50;;;;;;;15.83;59.92;100918.06;7357634;19;20019;-66
2023/10/17 13:05:16;;;;;;;3.90;0.38;;;;;;;15.90;59.30;100920.78;7354521;19;20011;-66
2023/10/17 13:07:45;;;;;;;5.25;0.43;;;;;;;15.88;59.42;100914.03;7355346;19;20129;-66
2023/10/17 13:10:12;;;;;;;3.03;0.35;;;;;;;15.89;60.48;100913.84;7356649;19;21222;-67
2023/10/17 13:12:39;;;;;;;4.40;0.40;;;;;;;15.88;60.91;100909.56;7347463;19;20696;-67
2023/10/17 13:15:08;;;;;;;2.72;0.40;;;;;;;15.87;60.90;100912.38;7354926;19;20101;-66
2023/10/17 13:17:36;;;;;;;8.32;1.23;;;;;;;15.87;60.90;100912.38;7355366;19;20036;-66
2023/10/17 13:20:09;;;;;;;4.00;0.50;;;;;;;15.93;60.98;100898.38;7359430;19;20018;-66
2023/10/17 13:22:50;;;;;;;7.93;0.65;;;;;;;16.00;59.51;100899.28;7359284;19;20451;-67
2023/10/17 13:25:20;;;;;;;5.72;0.65;;;;;;;15.95;59.68;100896.38;7355180;19;20010;-67
2023/10/17 13:27:47;;;;;;;4.03;0.47;;;;;;;15.95;59.39;100891.06;7354568;19;20331;-67
2023/10/17 13:30:15;;;;;;;11.18;2.33;;;;;;;15.87;59.36;100897.28;7355566;19;20018;-67
2023/10/17 13:32:42;;;;;;;3.22;0.40;;;;;;;15.82;59.28;100895.19;7355656;19;20018;-66
2023/10/17 13:35:09;;;;;;;2.78;0.20;;;;;;;15.80;59.50;100893.72;7353009;19;20045;-66
2023/10/17 13:37:36;;;;;;;6.75;0.43;;;;;;;15.76;59.86;100903.88;7357587;19;20018;-67
2023/10/17 13:40:09;;;;;;;3.30;0.50;;;;;;;15.71;59.80;100902.78;7354614;19;20041;-66
2023/10/17 13:42:37;;;;;;;4.43;0.40;;;;;;;15.70;58.76;100906.44;7354413;19;20010;-66
2023/10/17 13:45:05;;;;;;;7.53;1.25;;;;;;;15.74;60.29;100882.03;7349154;19;20026;-68
2023/10/17 13:47:32;;;;;;;7.45;0.40;;;;;;;15.68;59.18;100892.56;7354823;19;20659;-67
2023/10/17 13:49:59;;;;;;;3.97;0.50;;;;;;;15.62;59.88;100894.13;7350514;19;20523;-67
2023/10/17 13:52:26;;;;;;;5.80;0.57;;;;;;;15.62;60.46;100899.41;7356125;19;20662;-67
2023/10/17 13:54:53;;;;;;;3.78;0.40;;;;;;;15.64;60.47;100907.19;7355323;19;20011;-67
2023/10/17 13:57:20;;;;;;;3.33;0.40;;;;;;;15.62;60.07;100898.59;7356273;19;20623;-66
2023/10/17 13:59:47;;;;;;;3.83;0.30;;;;;;;15.64;60.81;100889.47;7353787;19;20118;-66
2023/10/17 14:02:17;;;;;;;6.30;0.50;;;;;;;15.63;60.71;100887.81;7357272;19;20034;-66
2023/10/17 14:04:45;;;;;;;7.18;0.68;;;;;;;15.62;61.13;100874.72;7353246;19;20018;-66
2023/10/17 14:07:12;;;;;;;6.40;0.60;;;;;;;15.64;61.22;100876.19;7356260;19;20024;-67
2023/10/17 14:09:39;;;;;;;7.13;0.60;;;;;;;15.68;60.78;100872.16;7355591;19;21209;-67
2023/10/17 14:12:11;;;;;;;5.15;0.52;;;;;;;15.67;60.46;100877.63;7354408;19;20014;-66
2023/10/17 14:14:38;;;;;;;5.38;0.50;;;;;;;15.71;60.26;100866.47;7353799;19;20430;-66
2023/10/17 14:17:06;;;;;;;6.25;0.50;;;;;;;15.71;60.34;100878.91;7355312;19;20051;-66
2023/10/17 14:25:00;;;;;;;6.75;0.60;;;;;;;15.75;61.60;100869.56;7349892;19;20010;-67
2023/10/17 14:27:31;;;;;;;4.97;0.50;;;;;;;15.74;61.12;100862.63;7353516;19;20014;-67
2023/10/17 14:29:59;;;;;;;8.27;0.47;;;;;;;15.76;60.74;100860.59;7359469;19;20026;-67
2023/10/17 14:32:28;;;;;;;4.97;0.40;;;;;;;15.75;60.94;100857.13;7363251;19;20589;-66
2023/10/17 14:34:59;;;;;;;8.18;1.08;;;;;;;15.82;61.16;100844.78;7359868;19;20340;-66
2023/10/17 14:37:27;;;;;;;2.35;0.47;;;;;;;15.79;60.80;100839.84;7358353;19;20018;-67
2023/10/17 14:39:55;;;;;;;6.00;0.68;;;;;;;15.86;61.13;100847.88;7358954;19;20372;-67
2023/10/17 14:42:22;;;;;;;6.25;0.50;;;;;;;15.78;60.72;100838.19;7361886;19;20313;-67
2023/10/17 14:44:52;;;;;;;5.60;0.30;;;;;;;15.75;61.44;100835.06;7354792;19;20023;-65
2023/10/17 14:47:19;;;;;;;6.70;0.50;;;;;;;15.73;61.15;100824.66;7361757;19;20044;-66
2023/10/17 14:49:48;;;;;;;3.80;0.40;;;;;;;15.74;61.45;100815.72;7340119;19;20117;-66
2023/10/17 14:52:18;;;;;;;2.22;0.40;;;;;;;15.77;61.57;100825.09;7359468;19;20011;-65
2023/10/17 14:54:51;;;;;;;3.30;0.50;;;;;;;15.77;61.28;100806.53;7355256;19;20011;-67
2023/10/17 14:57:20;;;;;;;5.00;0.60;;;;;;;15.83;61.00;100798.66;7360914;19;20010;-66
2023/10/17 14:59:48;;;;;;;7.20;0.50;;;;;;;15.82;60.74;100796.19;7359057;19;20014;-65
2023/10/17 15:02:15;;;;;;;6.93;0.82;;;;;;;15.76;61.14;100800.41;7360223;19;20018;-66
2023/10/17 15:04:42;;;;;;;8.23;0.60;;;;;;;15.75;61.91;100804.06;7355123;19;20021;-66